Kersey, Indiana
Current Conditions -  °F | °C
As of 12:15 AM on Thursday 29 Jan 2015 (Local Time) from KRZL Reporting Station
Light Rain Light Rain  
Wind Chill: 24°   Ceiling: 5500
Heat Index: 34°   Visibility: 5mi
Dew Point: 30°   Wind: 14mph
Humidity: 87%   Direction: 150°SSE
Pressure: 29.86"   Gusts: 23mph
Location:  41.1657°N, 87.2663°W
Report Text: KRZL 290615Z AUTO 15012G20KT 5SM -RA SCT049 BKN055 OVC080 01/M01 A2986 RMK AO2
Loading
Personal Weather Stations






























Interactive Weather Map New forecast layout! Learn more

10-Day Weather Forecast

Advertisements
Track Severe Weather on mobile